createdAt,value
2023-02-05T00:00:52.157Z,66.73
2023-02-05T00:03:54.685Z,67.02
2023-02-05T00:06:56.757Z,66.48
2023-02-05T00:09:59.536Z,66.09
2023-02-05T00:13:00.827Z,66.16
2023-02-05T00:16:07.109Z,66.57
2023-02-05T00:19:09.690Z,66.84
2023-02-05T00:22:11.754Z,67.11
2023-02-05T00:25:14.312Z,67.49
2023-02-05T00:28:15.681Z,66.92
2023-02-05T00:31:21.038Z,67.05
2023-02-05T00:34:23.019Z,67.51
2023-02-05T00:37:25.010Z,67.50
2023-02-05T00:40:27.609Z,67.30
2023-02-05T00:43:28.908Z,67.54
2023-02-05T00:46:31.490Z,67.00
2023-02-05T00:49:34.117Z,66.91
2023-02-05T00:52:36.155Z,66.67
2023-02-05T00:55:38.719Z,67.55
2023-02-05T00:58:40.010Z,67.69
2023-02-05T01:01:42.591Z,68.36
2023-02-05T01:04:45.318Z,68.26
2023-02-05T01:07:47.281Z,67.67
2023-02-05T01:10:51.294Z,67.82
2023-02-05T01:13:52.609Z,68.00
2023-02-05T01:16:55.193Z,67.43
2023-02-05T01:19:56.968Z,68.01
2023-02-05T01:22:58.958Z,68.32
2023-02-05T01:26:01.661Z,68.21
2023-02-05T01:29:03.017Z,68.03
2023-02-05T01:32:05.138Z,68.75
2023-02-05T01:35:08.634Z,67.92
2023-02-05T01:38:10.771Z,68.36
2023-02-05T01:41:13.719Z,68.21
2023-02-05T01:44:17.700Z,67.82
2023-02-05T01:47:19.924Z,68.40
2023-02-05T01:50:27.921Z,68.85
2023-02-05T01:53:33.087Z,69.04
2023-02-05T01:56:38.990Z,68.38
2023-02-05T01:59:43.851Z,69.05
2023-02-05T02:02:45.741Z,69.29
2023-02-05T02:05:47.006Z,68.67
2023-02-05T02:12:10.971Z,69.44
2023-02-05T02:15:15.645Z,68.53
2023-02-05T02:18:29.066Z,70.04
2023-02-05T02:22:26.545Z,69.93
2023-02-05T02:25:57.809Z,69.62
2023-02-05T02:29:02.959Z,69.46
2023-02-05T02:32:12.701Z,69.05
2023-02-05T02:35:20.367Z,68.79
2023-02-05T02:38:28.443Z,68.89
2023-02-05T02:41:35.979Z,68.88
2023-02-05T02:44:48.973Z,69.78
2023-02-05T02:47:55.174Z,70.04
2023-02-05T02:50:58.358Z,69.62
2023-02-05T02:54:05.051Z,69.84
2023-02-05T02:57:09.963Z,69.57
2023-02-05T03:00:18.012Z,69.60
2023-02-05T03:03:23.257Z,69.86
2023-02-05T03:06:27.417Z,69.70
2023-02-05T03:09:34.610Z,69.88
2023-02-05T03:12:35.993Z,68.73
2023-02-05T03:15:41.355Z,68.78
2023-02-05T03:18:42.969Z,69.60
2023-02-05T03:21:49.401Z,69.56
2023-02-05T03:24:51.955Z,69.97
2023-02-05T03:27:54.705Z,69.15
2023-02-05T03:31:03.691Z,70.07
2023-02-05T03:34:19.066Z,69.88
2023-02-05T03:37:31.383Z,70.11
2023-02-05T03:40:43.269Z,69.97
2023-02-05T03:43:53.750Z,69.38
2023-02-05T03:47:02.373Z,69.17
2023-02-05T03:50:12.414Z,70.44
2023-02-05T03:53:22.546Z,70.09
2023-02-05T03:56:28.490Z,69.78
2023-02-05T03:59:32.271Z,69.55
2023-02-05T04:02:34.285Z,69.33
2023-02-05T04:05:36.139Z,69.65
2023-02-05T04:08:37.646Z,69.72
2023-02-05T04:11:38.978Z,70.15
2023-02-05T04:14:41.123Z,70.03
2023-02-05T04:17:43.055Z,70.10
2023-02-05T04:20:44.656Z,70.14
2023-02-05T04:23:46.859Z,69.91
2023-02-05T04:26:50.210Z,69.41
2023-02-05T04:29:51.505Z,69.65
2023-02-05T04:32:53.481Z,69.97
2023-02-05T04:35:58.873Z,69.85
2023-02-05T04:39:01.068Z,70.14
2023-02-05T04:42:02.369Z,69.49
2023-02-05T04:45:05.180Z,69.98
2023-02-05T04:48:07.141Z,69.75
2023-02-05T04:51:11.035Z,69.92
2023-02-05T04:54:12.380Z,70.32
2023-02-05T04:57:14.558Z,70.18
2023-02-05T05:00:17.128Z,69.60
2023-02-05T05:03:19.072Z,69.62
2023-02-05T05:06:21.306Z,70.23
2023-02-05T05:09:24.347Z,69.84
2023-02-05T05:12:25.657Z,69.47
2023-02-05T05:15:27.887Z,70.13
2023-02-05T05:18:30.322Z,70.36
2023-02-05T05:21:32.694Z,71.04
2023-02-05T05:24:34.899Z,70.36
2023-02-05T05:27:36.261Z,70.63
2023-02-05T05:30:38.045Z,69.10
2023-02-05T05:33:40.950Z,70.58
2023-02-05T05:36:42.961Z,70.00
2023-02-05T05:40:02.550Z,69.73
2023-02-05T05:43:21.730Z,70.57
2023-02-05T05:46:25.831Z,69.93
2023-02-05T05:49:27.883Z,70.32
2023-02-05T05:52:32.382Z,70.20
2023-02-05T05:55:35.193Z,70.38
2023-02-05T05:58:36.942Z,70.05
2023-02-05T06:01:39.177Z,69.77
2023-02-05T06:04:42.066Z,70.17
2023-02-05T06:07:44.044Z,70.94
2023-02-05T06:10:46.492Z,70.91
2023-02-05T06:13:47.798Z,70.21
2023-02-05T06:16:50.087Z,70.75
2023-02-05T06:19:52.057Z,70.72
2023-02-05T06:22:54.431Z,70.76
2023-02-05T06:25:55.726Z,70.61
2023-02-05T06:29:02.324Z,71.10
2023-02-05T06:32:03.918Z,70.94
2023-02-05T06:35:06.835Z,71.14
2023-02-05T06:38:09.124Z,71.05
2023-02-05T06:41:10.423Z,71.59
2023-02-05T06:44:12.579Z,71.06
2023-02-05T06:47:15.212Z,71.16
2023-02-05T06:50:17.229Z,71.08
2023-02-05T06:53:19.428Z,70.82
2023-02-05T06:56:20.698Z,70.19
2023-02-05T06:59:22.923Z,71.28
2023-02-05T07:02:25.363Z,70.98
2023-02-05T07:05:27.519Z,70.93
2023-02-05T07:08:29.719Z,71.40
2023-02-05T07:11:31.233Z,71.35
2023-02-05T07:14:36.815Z,70.88
2023-02-05T07:17:39.563Z,71.21
2023-02-05T07:20:41.487Z,71.70
2023-02-05T07:23:43.822Z,71.34
2023-02-05T07:26:45.097Z,71.08
2023-02-05T07:29:47.494Z,70.50
2023-02-05T07:32:49.735Z,70.94
2023-02-05T07:35:53.908Z,70.77
2023-02-05T07:38:56.120Z,70.63
2023-02-05T07:41:57.393Z,69.94
2023-02-05T07:44:59.126Z,70.66
2023-02-05T07:48:01.305Z,69.93
2023-02-05T07:51:03.963Z,69.83
2023-02-05T07:54:06.592Z,69.33
2023-02-05T07:57:07.882Z,68.61
2023-02-05T08:00:10.093Z,68.54
2023-02-05T08:03:12.338Z,67.89
2023-02-05T08:06:15.858Z,68.08
2023-02-05T08:09:18.064Z,68.40
2023-02-05T08:12:19.389Z,67.56
2023-02-05T08:15:21.803Z,67.06
2023-02-05T08:18:24.523Z,66.18
2023-02-05T08:21:26.449Z,65.53
2023-02-05T08:24:29.163Z,64.90
2023-02-05T08:27:31.896Z,65.27
2023-02-05T08:30:34.102Z,63.93
2023-02-05T08:33:35.384Z,65.18
2023-02-05T08:36:38.259Z,63.49
2023-02-05T08:39:39.862Z,63.42
2023-02-05T08:42:41.149Z,62.00
2023-02-05T08:45:47.401Z,64.14
2023-02-05T08:48:49.112Z,62.39
2023-02-05T08:51:52.542Z,63.19
2023-02-05T08:54:53.829Z,63.21
2023-02-05T08:57:55.154Z,63.38
2023-02-05T09:01:00.893Z,62.77
2023-02-05T09:04:02.347Z,62.53
2023-02-05T09:07:04.362Z,62.26
2023-02-05T09:10:08.111Z,63.04
2023-02-05T09:13:09.348Z,62.50
2023-02-05T09:16:12.239Z,62.91
2023-02-05T09:19:13.523Z,62.28
2023-02-05T09:25:39.208Z,61.76
2023-02-05T09:28:40.523Z,61.19
2023-02-05T09:31:42.750Z,61.24
2023-02-05T09:34:44.040Z,60.93
2023-02-05T09:37:47.269Z,60.18
2023-02-05T09:40:57.362Z,59.51
2023-02-05T09:44:05.224Z,59.44
2023-02-05T09:47:14.515Z,59.11
2023-02-05T09:50:24.897Z,56.93
2023-02-05T09:53:34.032Z,57.84
2023-02-05T09:59:59.588Z,55.14
2023-02-05T10:06:46.638Z,53.95
2023-02-05T10:10:02.056Z,53.11
2023-02-05T10:13:36.404Z,52.76
2023-02-05T10:16:48.549Z,52.56
2023-02-05T10:20:02.661Z,53.26
2023-02-05T10:23:16.937Z,52.36
2023-02-05T10:26:23.208Z,50.24
2023-02-05T10:29:38.727Z,50.86
2023-02-05T10:32:53.234Z,50.64
2023-02-05T10:36:00.840Z,49.53
2023-02-05T10:39:11.359Z,50.43
2023-02-05T10:42:25.445Z,49.38
2023-02-05T10:45:28.779Z,49.66
2023-02-05T10:48:40.892Z,50.14
2023-02-05T10:51:44.469Z,50.60
2023-02-05T10:54:47.459Z,51.08
2023-02-05T10:57:49.613Z,51.24
2023-02-05T11:00:51.518Z,49.98
2023-02-05T11:03:58.382Z,50.07
2023-02-05T11:07:06.539Z,49.85
2023-02-05T11:10:15.753Z,49.84
2023-02-05T11:13:21.287Z,49.49
2023-02-05T11:16:25.230Z,48.70
2023-02-05T11:19:28.575Z,48.89
2023-02-05T11:22:35.597Z,48.80
2023-02-05T11:25:49.444Z,49.65
2023-02-05T11:28:53.233Z,49.17
2023-02-05T11:31:54.611Z,49.38
2023-02-05T11:35:10.991Z,48.38
2023-02-05T11:38:29.055Z,49.89
2023-02-05T11:41:33.316Z,50.49
2023-02-05T11:44:46.373Z,50.79
2023-02-05T11:47:49.371Z,50.75
2023-02-05T11:50:51.954Z,50.31
2023-02-05T11:53:59.142Z,50.16
2023-02-05T11:57:06.747Z,50.68
2023-02-05T12:00:22.940Z,49.77
2023-02-05T12:03:32.056Z,49.05
2023-02-05T12:06:41.905Z,50.03
2023-02-05T12:09:44.463Z,49.68
2023-02-05T12:12:59.095Z,49.32
2023-02-05T12:16:13.908Z,50.01
2023-02-05T12:19:21.027Z,48.99
2023-02-05T12:22:45.789Z,50.11
2023-02-05T12:25:57.806Z,49.31
2023-02-05T12:29:13.396Z,49.27
2023-02-05T12:32:27.634Z,49.18
2023-02-05T12:35:49.044Z,48.11
2023-02-05T12:39:03.377Z,48.23
2023-02-05T12:42:16.478Z,47.49
2023-02-05T12:45:41.162Z,47.45
2023-02-05T12:49:00.604Z,47.45
2023-02-05T12:52:20.342Z,47.74
2023-02-05T12:55:37.744Z,47.51
2023-02-05T12:58:42.329Z,47.08
2023-02-05T13:01:50.729Z,47.29
2023-02-05T13:05:00.749Z,47.77
2023-02-05T13:08:09.185Z,46.16
2023-02-05T13:11:17.590Z,47.45
2023-02-05T13:14:24.311Z,47.93
2023-02-05T13:17:27.814Z,47.54
2023-02-05T13:20:54.455Z,47.84
2023-02-05T13:24:23.539Z,47.01
2023-02-05T13:27:49.017Z,47.80
2023-02-05T13:30:56.680Z,47.82
2023-02-05T13:34:05.281Z,47.30
2023-02-05T13:37:24.442Z,48.52
2023-02-05T13:40:44.176Z,48.15
2023-02-05T13:44:14.717Z,47.45
2023-02-05T13:48:02.190Z,46.99
2023-02-05T13:51:38.562Z,47.57
2023-02-05T13:55:05.121Z,47.42
2023-02-05T13:58:22.669Z,46.94
2023-02-05T14:01:28.759Z,47.29
2023-02-05T14:08:02.228Z,47.03
2023-02-05T14:11:05.424Z,47.46
2023-02-05T14:14:28.601Z,47.97
2023-02-05T14:17:54.210Z,47.67
2023-02-05T14:20:55.715Z,47.74
2023-02-05T14:23:59.049Z,47.73
2023-02-05T14:27:01.047Z,47.42
2023-02-05T14:30:38.068Z,48.12
2023-02-05T14:33:41.286Z,48.25
2023-02-05T14:36:44.636Z,48.32
2023-02-05T14:39:46.034Z,47.29
2023-02-05T14:42:50.115Z,48.12
2023-02-05T14:45:52.960Z,48.18
2023-02-05T14:48:58.716Z,48.21
2023-02-05T14:52:02.575Z,48.41
2023-02-05T14:55:09.316Z,48.00
2023-02-05T14:58:24.946Z,48.27
2023-02-05T15:01:45.625Z,49.28
2023-02-05T15:04:49.960Z,49.36
2023-02-05T15:07:59.376Z,50.11
2023-02-05T15:11:08.553Z,50.02
2023-02-05T15:14:42.966Z,49.54
2023-02-05T15:17:51.798Z,49.77
2023-02-05T15:20:55.796Z,48.96
2023-02-05T15:24:01.007Z,50.13
2023-02-05T15:27:06.597Z,49.80
2023-02-05T15:33:50.176Z,52.00
2023-02-05T15:36:56.927Z,51.77
2023-02-05T15:40:04.854Z,51.87
2023-02-05T15:43:15.878Z,51.77
2023-02-05T15:46:19.882Z,51.89
2023-02-05T15:49:29.375Z,52.99
2023-02-05T15:52:32.585Z,53.85
2023-02-05T15:55:35.675Z,53.91
2023-02-05T15:58:41.245Z,54.84
2023-02-05T16:01:47.124Z,53.70
2023-02-05T16:04:56.287Z,55.11
2023-02-05T16:08:01.254Z,55.97
2023-02-05T16:11:04.607Z,56.50
2023-02-05T16:14:08.991Z,56.89
2023-02-05T16:17:16.885Z,57.05
2023-02-05T16:20:27.233Z,57.48
2023-02-05T16:23:33.191Z,57.68
2023-02-05T16:26:40.975Z,57.80
2023-02-05T16:29:48.722Z,57.91
2023-02-05T16:32:53.427Z,57.92
2023-02-05T16:35:56.462Z,58.31
2023-02-05T16:42:35.430Z,56.69
2023-02-05T16:45:38.425Z,57.16
2023-02-05T16:48:49.938Z,57.18
2023-02-05T16:51:55.559Z,57.53
2023-02-05T16:54:57.456Z,56.44
2023-02-05T16:58:05.064Z,57.37
2023-02-05T17:01:06.947Z,57.27
2023-02-05T17:04:25.885Z,57.85
2023-02-05T17:07:29.320Z,57.72
2023-02-05T17:10:32.485Z,57.63
2023-02-05T17:13:39.157Z,57.58
2023-02-05T17:16:41.754Z,57.53
2023-02-05T17:20:00.928Z,57.76
2023-02-05T17:23:09.986Z,57.92
2023-02-05T17:26:11.433Z,58.62
2023-02-05T17:29:15.324Z,58.79
2023-02-05T17:32:18.556Z,59.09
2023-02-05T17:35:23.823Z,59.54
2023-02-05T17:38:26.485Z,60.57
2023-02-05T17:41:51.336Z,60.75
2023-02-05T17:44:52.869Z,60.36
2023-02-05T17:47:55.442Z,61.47
2023-02-05T17:50:58.506Z,61.46
2023-02-05T17:54:01.329Z,61.71
2023-02-05T17:57:14.114Z,61.65
2023-02-05T18:00:18.975Z,61.68
2023-02-05T18:03:21.488Z,61.74
2023-02-05T18:06:23.452Z,62.15
2023-02-05T18:09:25.998Z,62.14
2023-02-05T18:12:28.858Z,62.96
2023-02-05T18:15:31.437Z,63.00
2023-02-05T18:18:37.042Z,63.13
2023-02-05T18:21:39.155Z,63.71
2023-02-05T18:28:02.571Z,63.51
2023-02-05T18:31:06.061Z,63.06
2023-02-05T18:34:08.635Z,63.64
2023-02-05T18:37:13.306Z,63.65
2023-02-05T18:40:14.700Z,64.08
2023-02-05T18:43:15.989Z,63.87
2023-02-05T18:46:20.636Z,63.88
2023-02-05T18:49:23.350Z,63.39
2023-02-05T18:52:26.468Z,64.38
2023-02-05T18:55:29.676Z,64.09
2023-02-05T18:58:32.282Z,64.50
2023-02-05T19:01:37.402Z,64.03
2023-02-05T19:04:38.931Z,64.21
2023-02-05T19:07:40.895Z,64.43
2023-02-05T19:10:43.418Z,64.57
2023-02-05T19:13:44.727Z,64.65
2023-02-05T19:16:48.357Z,64.38
2023-02-05T19:19:51.051Z,64.99
2023-02-05T19:22:53.026Z,64.94
2023-02-05T19:25:55.590Z,65.07
2023-02-05T19:28:58.973Z,65.22
2023-02-05T19:32:00.279Z,65.07
2023-02-05T19:35:03.152Z,65.34
2023-02-05T19:38:05.124Z,65.47
2023-02-05T19:41:09.381Z,65.74
2023-02-05T19:44:11.222Z,65.37
2023-02-05T19:47:13.815Z,66.03
2023-02-05T19:50:16.902Z,65.74
2023-02-05T19:53:20.421Z,65.71
2023-02-05T19:56:23.097Z,66.48
2023-02-05T19:59:24.513Z,66.43
2023-02-05T20:02:27.593Z,65.59
2023-02-05T20:08:51.508Z,66.78
2023-02-05T20:11:53.607Z,66.18
2023-02-05T20:14:54.960Z,66.63
2023-02-05T20:17:58.568Z,66.70
2023-02-05T20:21:00.051Z,66.94
2023-02-05T20:24:03.783Z,66.70
2023-02-05T20:27:05.150Z,66.73
2023-02-05T20:30:27.425Z,66.51
2023-02-05T20:33:29.959Z,67.34
2023-02-05T20:36:32.717Z,67.05
2023-02-05T20:39:38.867Z,66.51
2023-02-05T20:42:41.372Z,66.19
2023-02-05T20:45:42.652Z,66.99
2023-02-05T20:48:45.192Z,67.16
2023-02-05T20:51:46.748Z,67.38
2023-02-05T20:54:49.885Z,67.06
2023-02-05T20:57:51.133Z,67.80
2023-02-05T21:00:53.837Z,67.46
2023-02-05T21:03:57.444Z,67.64
2023-02-05T21:07:00.146Z,67.72
2023-02-05T21:10:03.264Z,67.97
2023-02-05T21:13:05.811Z,67.74
2023-02-05T21:16:08.316Z,67.40
2023-02-05T21:19:12.771Z,68.50
2023-02-05T21:22:15.303Z,68.74
2023-02-05T21:25:18.574Z,68.09
2023-02-05T21:28:19.840Z,68.39
2023-02-05T21:31:23.554Z,68.66
2023-02-05T21:34:26.764Z,68.67
2023-02-05T21:37:29.356Z,67.80
2023-02-05T21:40:34.798Z,68.83
2023-02-05T21:43:36.815Z,68.00
2023-02-05T21:46:40.088Z,68.10
2023-02-05T21:49:41.493Z,68.18
2023-02-05T21:52:44.262Z,68.52
2023-02-05T21:55:47.614Z,68.81
2023-02-05T21:58:49.249Z,68.35
2023-02-05T22:01:52.348Z,69.20
2023-02-05T22:04:53.653Z,69.08
2023-02-05T22:07:56.213Z,69.75
2023-02-05T22:11:02.508Z,69.18
2023-02-05T22:14:05.198Z,69.81
2023-02-05T22:17:07.861Z,69.74
2023-02-05T22:20:10.509Z,68.92
2023-02-05T22:23:13.466Z,68.48
2023-02-05T22:26:17.783Z,69.22
2023-02-05T22:29:20.049Z,68.75
2023-02-05T22:32:22.667Z,69.07
2023-02-05T22:35:24.071Z,68.90
2023-02-05T22:38:27.364Z,68.90
2023-02-05T22:41:31.832Z,69.25
2023-02-05T22:44:35.393Z,69.68
2023-02-05T22:47:37.913Z,69.14
2023-02-05T22:50:41.596Z,68.95
2023-02-05T22:53:44.594Z,68.56
2023-02-05T22:56:47.877Z,69.50
2023-02-05T22:59:49.293Z,69.34
2023-02-05T23:02:51.779Z,70.20
2023-02-05T23:05:53.033Z,69.50
2023-02-05T23:08:57.452Z,69.53
2023-02-05T23:12:00.234Z,69.69
2023-02-05T23:15:03.052Z,68.81
2023-02-05T23:18:05.631Z,69.47
2023-02-05T23:21:07.915Z,68.97
2023-02-05T23:24:10.790Z,68.95
2023-02-05T23:27:12.852Z,69.34
2023-02-05T23:30:16.013Z,69.56
2023-02-05T23:33:18.731Z,69.38
2023-02-05T23:36:20.385Z,69.70
2023-02-05T23:39:23.177Z,69.73
2023-02-05T23:42:25.449Z,69.70
2023-02-05T23:45:27.977Z,69.46
2023-02-05T23:48:30.791Z,68.81
2023-02-05T23:51:34.696Z,69.61
2023-02-05T23:54:35.994Z,69.40
2023-02-05T23:57:39.337Z,69.33
